Катастрофа Боинг-737 в Казани - официальная информация

Тема в разделе "Безопасность полётов", создана пользователем mick123, 17 ноя 2013.

  1. mick123

    mick123 Новичок

    Сообщения:
    12
    Адрес:
    URRR/URRX
    #1 17 ноя 2013
    По предварительным данным при посадке в аэропорту Казань в 19.25, потерпел крушение Боинг-737, рейс У9-363 Москва-Казань, все погибли, на борту было 44+6 человек. По информации МЧС.


    телефон горячей линии: 8-800-775-17-17
     
    Последнее редактирование: 17 ноя 2013
  2. Мавр

    Мавр Старожил

    Сообщения:
    5.347
    Адрес:
    Резиновая столица
  3. maels

    maels Местный

    Сообщения:
    441
    #3 17 ноя 2013
    По некоторым данным, 44 человека погибли в авиакатастрофе "Боинга" в Казани - МЧС
     
  4. maels

    maels Местный

    Сообщения:
    441
    #4 17 ноя 2013
    МОСКВА, 17 ноября. /ИТАР-ТАСС/. При посадке в Казани разбился самолет "Боинг", следовавший рейсом Москва - Казань. Как сообщила ИТАР-ТАСС официальный представитель МЧС России Ирина Россиус, по предварительным данным, на борту находились 44 человек, все погибли.
    Россиус уточнила, что самолет разбился в 19:30 мск при заходе на посадку, произошел взрыв.
    "Все силы Приволжского регионального центра МЧС приведены в повышенную готовность. Из Москвы в Казань готовы вылететь специалисты "Центроспаса", - сообщила Россиус.
    В Росавиации сообщили, что разбился самолет авиакомпании "Татарстан".
    "Боинг-737-500" столкнулся с землей при попытке ухода на второй круг",- сказал собеседник агентства.
    http://www.itar-tass.com/proisshestviya/763432
     
  5. barzha

    barzha Местный

    Сообщения:
    422
    Адрес:
    Храброво
    #5 17 ноя 2013
    Самолёт столкнулся с землёй при заходе на второй круг, на борту 44 пассажира и 6 членов экипажа. Самолёт 3 раза пытался зайти на второй круг. На месте катастрофы пожар, который уже ликвидирован (Источник Россия 24)
     
  6. RESPECT

    RESPECT Местный

    Сообщения:
    198
    #6 17 ноя 2013
    VQ-BBN получается(
     
  7. maels

    maels Местный

    Сообщения:
    441
    #7 17 ноя 2013
    Татарстан рейс 363


    ---------- Добавлено в 20:15 ----------


    Пишут, что на борту был Ирек Минниханов(сын губернатора)
     
  8. Shu

    Shu Местный

    Сообщения:
    110
  9. #9 17 ноя 2013
    ........
     
  10. oldfinn

    oldfinn Старожил

    #10 17 ноя 2013
    Улетевшим навсегда - вечного полета, родным и близким - сил, все пережить.
     
  11. brother_737

    brother_737 Местный

    Сообщения:
    933
    Адрес:
    Москва
    #11 17 ноя 2013
    Vik63,
    UWKD 171600Z 24008G12MPS 5000 -RASN OVC008 03/03 Q0993 R29/2/0055 NOSIG RMK QFE734/0978
    UWKD 171530Z 23008G11MPS 5000 -RASN OVC007 03/03 Q0993 R29/2/0055 NOSIG RMK QFE734/0979
     
  12. Hayam

    Hayam Злобный доктор

    Сообщения:
    2.543
    Адрес:
    20 км курсом 225° от UUMU
    #12 17 ноя 2013
    Tanita, Location: UWKD
    Day of month: 17
    Time: 15:30 UTC
    Wind: True direction = 230 degrees, Speed: 8 m/s, with Gusts of maximum speed 11 m/s
    Visibility: 5000 m
    Weather: Light Rain Snow
    Clouds: Overcast sky , at 700 feet above aerodrome level
    Temperature: 03 degrees Celsius
    Dewpoint: 03 degrees Celsius
    QNH (Sea-level pressure): 993 hPa
    No significant changes expected in the near future
     
  13. Lexich

    Lexich PIC - CPT

    Сообщения:
    3.348
    Адрес:
    LJU-VKO
    #13 17 ноя 2013
    Казань, 17.11.13 в 1600 по GMT (2000 по Мск) Ветер 240 град 8 м/с с порывами до 12, Видимость 5км, идет слабый снег с дождем, нижний край облачности сплошной на 240м. Кратко, в работе 29 полоса. Дальше вам информация не будет интересна.
     
  14. AndreiB

    AndreiB Местный

    Сообщения:
    614
    Адрес:
    Москва
    #14 17 ноя 2013
    Tanita, Видимость 5 км, ветер 8 м/с с порывами до 11 м/с, снег с дождём, нижняя граница облачности 700 футов, температура воздуха 3C, точна росы 3C, видимость на полосе 2 км.
     
  15. Dvizzzok

    Dvizzzok Т о ж е я к

    Сообщения:
    257
    Адрес:
    Четвёртый разворот к URWW
    #15 17 ноя 2013
    Давайте не будем про"ощущения"...
     
  16. #16 17 ноя 2013
    Погода за последние 6 часов. Ко времени UTC нужно прибавлять 4 часа.
    Aviation Digital Data Service (ADDS)
    Output produced by METARs form (1650 UTC 17 November 2013)
    found at http://aviationweather.gov/adds/metars/

    METAR text: UWKD 171630Z 24010G13MPS 9999 -RA OVC012 04/03 Q0992 R29/2/0050 NOSIG RMK QFE733/0977
    Conditions at: UWKD (KAZAN , RU) observed 1630 UTC 17 November 2013
    Temperature: 4.0°C (39°F)
    Dewpoint: 3.0°C (37°F) [RH = 93%]
    Pressure (altimeter): 29.29 inches Hg (992.0 mb)
    Winds: from the WSW (240 degrees) at 22 MPH (19 knots; 9.9 m/s)
    gusting to 29 MPH (25 knots; 13.0 m/s)
    Visibility: 6 or more miles (10+ km)
    Ceiling: 1200 feet AGL
    Clouds: overcast cloud deck at 1200 feet AGL
    Weather: -RA (light rain)

    METAR text: UWKD 171600Z 24008G12MPS 5000 -RASN OVC008 03/03 Q0993 R29/2/0055 NOSIG RMK QFE734/0978
    Conditions at: UWKD (KAZAN , RU) observed 1600 UTC 17 November 2013
    Temperature: 3.0°C (37°F)
    Dewpoint: 3.0°C (37°F) [RH = 100%]
    Pressure (altimeter): 29.32 inches Hg (993.0 mb)
    Winds: from the WSW (240 degrees) at 18 MPH (16 knots; 8.3 m/s)
    gusting to 26 MPH (23 knots; 12.0 m/s)
    Visibility: 3 miles (5 km)
    Ceiling: 800 feet AGL
    Clouds: overcast cloud deck at 800 feet AGL
    Weather: -RA -SN (light rain, light snow)

    METAR text: UWKD 171530Z 23008G11MPS 5000 -RASN OVC007 03/03 Q0993 R29/2/0055 NOSIG RMK QFE734/0979
    Conditions at: UWKD (KAZAN , RU) observed 1530 UTC 17 November 2013
    Temperature: 3.0°C (37°F)
    Dewpoint: 3.0°C (37°F) [RH = 100%]
    Pressure (altimeter): 29.32 inches Hg (993.0 mb)
    Winds: from the SW (230 degrees) at 18 MPH (16 knots; 8.3 m/s)
    gusting to 24 MPH (21 knots; 10.9 m/s)
    Visibility: 3 miles (5 km)
    Ceiling: 700 feet AGL
    Clouds: overcast cloud deck at 700 feet AGL
    Weather: -RA -SN (light rain, light snow)

    METAR text: UWKD 171500Z 23009G12MPS 9999 -RASN OVC008 03/02 Q0994 R29/2/0055 NOSIG RMK QFE735/0980
    Conditions at: UWKD (KAZAN , RU) observed 1500 UTC 17 November 2013
    Temperature: 3.0°C (37°F)
    Dewpoint: 2.0°C (36°F) [RH = 93%]
    Pressure (altimeter): 29.35 inches Hg (994.0 mb)
    Winds: from the SW (230 degrees) at 20 MPH (17 knots; 8.8 m/s)
    gusting to 26 MPH (23 knots; 12.0 m/s)
    Visibility: 6 or more miles (10+ km)
    Ceiling: 800 feet AGL
    Clouds: overcast cloud deck at 800 feet AGL
    Weather: -RA -SN (light rain, light snow)

    METAR text: UWKD 171430Z 23009G12MPS 9999 OVC009 03/02 Q0995 R29/2/0055 NOSIG RMK QFE735/0980
    Conditions at: UWKD (KAZAN , RU) observed 1430 UTC 17 November 2013
    Temperature: 3.0°C (37°F)
    Dewpoint: 2.0°C (36°F) [RH = 93%]
    Pressure (altimeter): 29.38 inches Hg (995.0 mb)
    Winds: from the SW (230 degrees) at 20 MPH (17 knots; 8.8 m/s)
    gusting to 26 MPH (23 knots; 12.0 m/s)
    Visibility: 6 or more miles (10+ km)
    Ceiling: 900 feet AGL
    Clouds: overcast cloud deck at 900 feet AGL
    Weather: no significant weather observed at this time

    METAR text: UWKD 171400Z 23007G10MPS 9999 OVC011 03/02 Q0996 R29/2/0055 NOSIG RMK QFE736/0981
    Conditions at: UWKD (KAZAN , RU) observed 1400 UTC 17 November 2013
    Temperature: 3.0°C (37°F)
    Dewpoint: 2.0°C (36°F) [RH = 93%]
    Pressure (altimeter): 29.41 inches Hg (996.0 mb)
    Winds: from the SW (230 degrees) at 16 MPH (14 knots; 7.3 m/s)
    gusting to 22 MPH (19 knots; 9.9 m/s)
    Visibility: 6 or more miles (10+ km)
    Ceiling: 1100 feet AGL
    Clouds: overcast cloud deck at 1100 feet AGL
    Weather: no significant weather observed at this time


    METAR text: UWKD 171330Z 24006G09MPS 9999 OVC012 03/02 Q0996 R29/2/0055 NOSIG RMK QFE736/0982
    Conditions at: UWKD (KAZAN , RU) observed 1330 UTC 17 November 2013
    Temperature: 3.0°C (37°F)
    Dewpoint: 2.0°C (36°F) [RH = 93%]
    Pressure (altimeter): 29.41 inches Hg (996.0 mb)
    Winds: from the WSW (240 degrees) at 14 MPH (12 knots; 6.2 m/s)
    gusting to 20 MPH (17 knots; 8.8 m/s)
    Visibility: 6 or more miles (10+ km)
    Ceiling: 1200 feet AGL
    Clouds: overcast cloud deck at 1200 feet AGL
    Weather: no significant weather observed at this time


    METAR text: UWKD 171300Z 24008G11MPS 9999 OVC011 03/02 Q0997 R29/2/0055 NOSIG RMK QFE736/0982
    Conditions at: UWKD (KAZAN , RU) observed 1300 UTC 17 November 2013
    Temperature: 3.0°C (37°F)
    Dewpoint: 2.0°C (36°F) [RH = 93%]
    Pressure (altimeter): 29.44 inches Hg (997.0 mb)
    Winds: from the WSW (240 degrees) at 18 MPH (16 knots; 8.3 m/s)
    gusting to 24 MPH (21 knots; 10.9 m/s)
    Visibility: 6 or more miles (10+ km)
    Ceiling: 1100 feet AGL
    Clouds: overcast cloud deck at 1100 feet AGL
    Weather: no significant weather observed at this time

    METAR text: UWKD 171230Z 23005G08MPS 9999 OVC012 03/02 Q0997 R29/2/0055 NOSIG RMK QFE737/0983
    Conditions at: UWKD (KAZAN , RU) observed 1230 UTC 17 November 2013
    Temperature: 3.0°C (37°F)
    Dewpoint: 2.0°C (36°F) [RH = 93%]
    Pressure (altimeter): 29.44 inches Hg (997.0 mb)
    Winds: from the SW (230 degrees) at 12 MPH (10 knots; 5.2 m/s)
    gusting to 18 MPH (16 knots; 8.3 m/s)
    Visibility: 6 or more miles (10+ km)
    Ceiling: 1200 feet AGL
    Clouds: overcast cloud deck at 1200 feet AGL
    Weather: no significant weather observed at this time

    METAR text: UWKD 171200Z 23007G10MPS 9999 OVC011 03/02 Q0997 R29/2/0050 NOSIG RMK QFE737/0983
    Conditions at: UWKD (KAZAN , RU) observed 1200 UTC 17 November 2013
    Temperature: 3.0°C (37°F)
    Dewpoint: 2.0°C (36°F) [RH = 93%]
    Pressure (altimeter): 29.44 inches Hg (997.0 mb)
    Winds: from the SW (230 degrees) at 16 MPH (14 knots; 7.3 m/s)
    gusting to 22 MPH (19 knots; 9.9 m/s)
    Visibility: 6 or more miles (10+ km)
    Ceiling: 1100 feet AGL
    Clouds: overcast cloud deck at 1100 feet AGL
    Weather: no significant weather observed at this time

    METAR text: UWKD 171130Z 24006MPS 9999 OVC012 03/01 Q0998 R29/2/0050 NOSIG RMK QFE737/0983
    Conditions at: UWKD (KAZAN , RU) observed 1130 UTC 17 November 2013
    Temperature: 3.0°C (37°F)
    Dewpoint: 1.0°C (34°F) [RH = 87%]
    Pressure (altimeter): 29.47 inches Hg (998.0 mb)
    Winds: from the WSW (240 degrees) at 14 MPH (12 knots; 6.2 m/s)
    Visibility: 6 or more miles (10+ km)
    Ceiling: 1200 feet AGL
    Clouds: overcast cloud deck at 1200 feet AGL
    Weather: no significant weather observed at this time

    METAR text: UWKD 171100Z 24007G10MPS 9999 OVC012 03/01 Q0998 R29/2/0050 NOSIG RMK QFE738/0984
    Conditions at: UWKD (KAZAN , RU) observed 1100 UTC 17 November 2013
    Temperature: 3.0°C (37°F)
    Dewpoint: 1.0°C (34°F) [RH = 87%]
    Pressure (altimeter): 29.47 inches Hg (998.0 mb)
    Winds: from the WSW (240 degrees) at 16 MPH (14 knots; 7.3 m/s)
    gusting to 22 MPH (19 knots; 9.9 m/s)
    Visibility: 6 or more miles (10+ km)
    Ceiling: 1200 feet AGL
    Clouds: overcast cloud deck at 1200 feet AGL
    Weather: no significant weather observed at this time
     
    Последнее редактирование: 17 ноя 2013
  17. flying

    flying блуждающий

    Сообщения:
    1.647
    Адрес:
    BRQ
    #17 17 ноя 2013
    По "первому" говорят что упал между ВПП и РД. Как он туда попал?
     
  18. Strannik

    Strannik Старожил

    Сообщения:
    3.309
    #18 17 ноя 2013
    Общая информация
    Рейс У9363 за 17.11.2013
    Плановое время вылета из аэропорта Домодедово 18:20
    Авиакомпания Авиакомпания ТАТАРСТАН
    Тип воздушного судна Б 737-500
    Плановый маршрут Москва(Домодедово)->Казань(Основной)
    Регистрация
    Начало регистрации 16.11.2013 18:20
    Окончание регистрации 17.11.2013 17:40
    Состояние регистрации Регистрация закрыта
    Посадка на рейс
    Плановое время начала посадки 17.11.2013 17:37
    Контроль безопасности Сектор C
    Выход 44 (выход был изменен)
    Состояние посадки Выход закрыт
    Маршрут
    18:25 - Отправлен из аэропорта Домодедово
    19:40 (+0:0) - Ожидается прибытие в аэропорт Казань(Основной)

    Татарстан 363 катастрофа.JPG

    Татарстан 363 с сайта.JPG

    Татарстан 363 аэропорт рейс.JPG
     
    Последнее редактирование: 17 ноя 2013
  19. flying

    flying блуждающий

    Сообщения:
    1.647
    Адрес:
    BRQ
    #19 17 ноя 2013
    Из твиттера:
     
  20. barzha

    barzha Местный

    Сообщения:
    422
    Адрес:
    Храброво
    #20 17 ноя 2013
    РИА новсти - самолёт внезапно потерял высоту при заходе на второй круг
     

Поделиться этой страницей